AUO weather

Auburn University Regional Airport
Auburn, Alabama, United States

Public forecast

Using degrees Fahrenheit for public forecast. Weather courtesy of forecast.io.

Current aviation weather report (METAR) for Auburn University Regional Airport

Retrieved 2019/10/20 21:56 UTC (37 minutes ago):

KAUO 202156Z AUTO 22005KT 10SM CLR 23/18 A2995 RMK AO2 SLP157 T02330178

Closest aviation forecast (TAF) to Auburn University Regional Airport

Closest forecast is Columbus Metropolitan Airport, 25.7 nm (47.7 km) ESE. Retrieved 2019/10/20 18:33 UTC (4 hours ago):

TAF KCSG 201731Z 2018/2118 25004KT P6SM BKN018 FM201900 26004KT P6SM FEW250 FM210100 00000KT P6SM FEW250 FM211400 14004KT P6SM SCT200 FM211600 16006KT P6SM SCT200